METAR Data
IDs: Format: Raw Decoded Include TAF

Data at: 0754 UTC 21 Oct 2018

METAR for:KOSU (Columbus/Ohio State, OH, US)
Text:KOSU 210653Z AUTO 33015G23KT 10SM OVC034 02/M04 A3019 RMK AO2 SLP225 T00221039
Temperature: 2.2°C ( 36°F)
Dewpoint: -3.9°C ( 25°F) [RH = 64%]
Pressure (altimeter):30.19 inches Hg (1022.4 mb) [Sea level pressure: 1022.5 mb]
Winds:from the NNW (330 degrees) at 17 MPH (15 knots; 7.7 m/s) gusting to 26 MPH (23 knots; 11.8 m/s)
Visibility:10 or more sm (16+ km)
Ceiling:3400 feet AGL
Clouds: overcast cloud deck at 3400 feet AGL
QC Flag:automated observation with no human augmentation